TAF Text Data
IDs:
Format:
Raw Decoded Include METAR

Data at: 0225 UTC 22 Jan 2020

METAR for:KAVL (Asheville Muni, NC, US)
Text:KAVL 220154Z 35012KT 10SM CLR M04/M12 A3036 RMK AO2 SLP304 T10391122
Temperature: -3.9°C ( 25°F)
Dewpoint:-12.2°C ( 10°F) [RH = 52%]
Pressure (altimeter):30.36 inches Hg (1028.2 mb) [Sea level pressure: 1030.4 mb]
Winds:from the N (350 degrees) at 14 MPH (12 knots; 6.2 m/s)
Visibility:10 or more sm (16+ km)
Ceiling:at least 12,000 feet AGL
Clouds:sky clear below 12,000 feet AGL

TAF for:KAVL (Asheville Muni, NC, US) issued at 2325 UTC 21 Jan 2020
Text:KAVL 212325Z 2200/2224 35013KT P6SM SKC
Forecast period:0000 to 0200 UTC 22 January 2020
Forecast type:FROM: standard forecast or significant change
Winds:from the N (350 degrees) at 15 MPH (13 knots; 6.7 m/s)
Visibility:6 or more sm (10+ km)
Ceiling:at least 12,000 feet AGL
Clouds:clear skies
Text:FM220200 35007KT P6SM SKC
Forecast period:0200 to 1700 UTC 22 January 2020
Forecast type:FROM: standard forecast or significant change
Winds:from the N (350 degrees) at 8 MPH (7 knots; 3.6 m/s)
Visibility:6 or more sm (10+ km)
Ceiling:at least 12,000 feet AGL
Clouds:clear skies
Text:FM221700 16005KT P6SM SCT250
Forecast period:1700 UTC 22 January 2020 to 0000 UTC 23 January 2020
Forecast type:FROM: standard forecast or significant change
Winds:from the SSE (160 degrees) at 6 MPH (5 knots; 2.6 m/s)
Visibility:6 or more sm (10+ km)
Ceiling:at least 12,000 feet AGL
Clouds: scattered clouds at 25000 feet AGL